sensor_id;sensor_type;location;lat;lon;timestamp;P1;durP1;ratioP1;P2;durP2;ratioP2
7745;SDS011;3917;42.748;23.278;2022-08-01T00:01:51;9.52;;;8.68;;
7745;SDS011;3917;42.748;23.278;2022-08-01T00:04:18;9.65;;;8.85;;
7745;SDS011;3917;42.748;23.278;2022-08-01T00:06:45;9.65;;;8.50;;
7745;SDS011;3917;42.748;23.278;2022-08-01T00:09:12;9.40;;;8.55;;
7745;SDS011;3917;42.748;23.278;2022-08-01T00:11:38;9.88;;;9.13;;
7745;SDS011;3917;42.748;23.278;2022-08-01T00:14:07;9.75;;;9.05;;
7745;SDS011;3917;42.748;23.278;2022-08-01T00:16:34;10.20;;;8.85;;
7745;SDS011;3917;42.748;23.278;2022-08-01T00:19:02;10.85;;;9.75;;
7745;SDS011;3917;42.748;23.278;2022-08-01T00:21:29;10.57;;;9.60;;
7745;SDS011;3917;42.748;23.278;2022-08-01T00:23:56;10.65;;;9.75;;
7745;SDS011;3917;42.748;23.278;2022-08-01T00:26:22;11.63;;;10.63;;
7745;SDS011;3917;42.748;23.278;2022-08-01T00:28:49;10.20;;;9.40;;
7745;SDS011;3917;42.748;23.278;2022-08-01T00:31:16;9.15;;;8.43;;
7745;SDS011;3917;42.748;23.278;2022-08-01T00:33:43;9.57;;;8.68;;
7745;SDS011;3917;42.748;23.278;2022-08-01T00:36:11;10.27;;;8.93;;
7745;SDS011;3917;42.748;23.278;2022-08-01T00:38:38;9.88;;;8.70;;
7745;SDS011;3917;42.748;23.278;2022-08-01T00:41:04;10.48;;;8.40;;
7745;SDS011;3917;42.748;23.278;2022-08-01T00:43:31;8.75;;;8.02;;
7745;SDS011;3917;42.748;23.278;2022-08-01T00:45:58;8.82;;;7.85;;
7745;SDS011;3917;42.748;23.278;2022-08-01T00:48:25;8.63;;;7.90;;
7745;SDS011;3917;42.748;23.278;2022-08-01T00:50:51;8.68;;;7.95;;
7745;SDS011;3917;42.748;23.278;2022-08-01T00:53:20;9.15;;;8.10;;
7745;SDS011;3917;42.748;23.278;2022-08-01T00:55:46;9.85;;;8.30;;
7745;SDS011;3917;42.748;23.278;2022-08-01T00:58:14;7.90;;;7.30;;
7745;SDS011;3917;42.748;23.278;2022-08-01T01:00:41;7.38;;;6.78;;
7745;SDS011;3917;42.748;23.278;2022-08-01T01:03:08;6.93;;;6.43;;
7745;SDS011;3917;42.748;23.278;2022-08-01T01:05:36;6.82;;;6.25;;
7745;SDS011;3917;42.748;23.278;2022-08-01T01:08:12;9.25;;;6.35;;
7745;SDS011;3917;42.748;23.278;2022-08-01T01:10:48;6.47;;;5.97;;
7745;SDS011;3917;42.748;23.278;2022-08-01T01:13:23;6.55;;;6.05;;
7745;SDS011;3917;42.748;23.278;2022-08-01T01:16:00;8.05;;;5.88;;
7745;SDS011;3917;42.748;23.278;2022-08-01T01:18:32;7.40;;;6.22;;
7745;SDS011;3917;42.748;23.278;2022-08-01T01:21:05;7.07;;;6.32;;
7745;SDS011;3917;42.748;23.278;2022-08-01T01:23:44;5.78;;;5.18;;
7745;SDS011;3917;42.748;23.278;2022-08-01T01:29:08;5.07;;;4.57;;
7745;SDS011;3917;42.748;23.278;2022-08-01T01:31:41;15.47;;;5.37;;
7745;SDS011;3917;42.748;23.278;2022-08-01T01:34:12;4.40;;;4.00;;
7745;SDS011;3917;42.748;23.278;2022-08-01T01:36:41;5.13;;;3.80;;
7745;SDS011;3917;42.748;23.278;2022-08-01T01:39:12;4.68;;;4.28;;
7745;SDS011;3917;42.748;23.278;2022-08-01T01:41:41;4.78;;;4.40;;
7745;SDS011;3917;42.748;23.278;2022-08-01T01:44:11;7.07;;;4.28;;
7745;SDS011;3917;42.748;23.278;2022-08-01T01:46:41;5.45;;;4.50;;
7745;SDS011;3917;42.748;23.278;2022-08-01T01:49:09;5.95;;;4.45;;
7745;SDS011;3917;42.748;23.278;2022-08-01T01:51:37;4.50;;;4.20;;
7745;SDS011;3917;42.748;23.278;2022-08-01T01:54:06;4.32;;;4.03;;
7745;SDS011;3917;42.748;23.278;2022-08-01T01:56:34;5.70;;;4.00;;
7745;SDS011;3917;42.748;23.278;2022-08-01T01:59:15;8.93;;;3.83;;
7745;SDS011;3917;42.748;23.278;2022-08-01T02:01:44;6.30;;;4.07;;
7745;SDS011;3917;42.748;23.278;2022-08-01T02:04:13;4.47;;;4.03;;
7745;SDS011;3917;42.748;23.278;2022-08-01T02:06:40;10.23;;;4.20;;
7745;SDS011;3917;42.748;23.278;2022-08-01T02:09:08;5.30;;;4.50;;
7745;SDS011;3917;42.748;23.278;2022-08-01T02:11:36;4.78;;;4.38;;
7745;SDS011;3917;42.748;23.278;2022-08-01T02:14:05;5.30;;;4.53;;
7745;SDS011;3917;42.748;23.278;2022-08-01T02:16:37;13.15;;;5.00;;
7745;SDS011;3917;42.748;23.278;2022-08-01T02:19:07;4.88;;;4.35;;
7745;SDS011;3917;42.748;23.278;2022-08-01T02:21:37;5.32;;;4.22;;
7745;SDS011;3917;42.748;23.278;2022-08-01T02:24:09;5.43;;;4.40;;
7745;SDS011;3917;42.748;23.278;2022-08-01T02:26:41;8.68;;;4.45;;
7745;SDS011;3917;42.748;23.278;2022-08-01T02:29:13;5.40;;;5.00;;
7745;SDS011;3917;42.748;23.278;2022-08-01T02:31:46;5.13;;;4.68;;
7745;SDS011;3917;42.748;23.278;2022-08-01T02:34:15;5.00;;;3.90;;
7745;SDS011;3917;42.748;23.278;2022-08-01T02:36:44;7.75;;;5.10;;
7745;SDS011;3917;42.748;23.278;2022-08-01T02:39:14;7.20;;;6.18;;
7745;SDS011;3917;42.748;23.278;2022-08-01T02:41:46;6.95;;;6.30;;
7745;SDS011;3917;42.748;23.278;2022-08-01T02:44:15;7.72;;;6.47;;
7745;SDS011;3917;42.748;23.278;2022-08-01T02:46:50;7.03;;;6.43;;
7745;SDS011;3917;42.748;23.278;2022-08-01T02:49:19;7.38;;;6.75;;
7745;SDS011;3917;42.748;23.278;2022-08-01T02:51:48;8.90;;;6.30;;
7745;SDS011;3917;42.748;23.278;2022-08-01T02:54:17;7.82;;;6.57;;
7745;SDS011;3917;42.748;23.278;2022-08-01T02:56:47;7.65;;;6.07;;
7745;SDS011;3917;42.748;23.278;2022-08-01T02:59:17;10.63;;;6.15;;
7745;SDS011;3917;42.748;23.278;2022-08-01T03:01:45;7.00;;;6.40;;
7745;SDS011;3917;42.748;23.278;2022-08-01T03:04:14;7.43;;;6.65;;
7745;SDS011;3917;42.748;23.278;2022-08-01T03:06:44;11.07;;;6.70;;
7745;SDS011;3917;42.748;23.278;2022-08-01T03:09:11;10.90;;;6.57;;
7745;SDS011;3917;42.748;23.278;2022-08-01T03:11:41;6.70;;;6.05;;
7745;SDS011;3917;42.748;23.278;2022-08-01T03:14:09;7.05;;;6.03;;
7745;SDS011;3917;42.748;23.278;2022-08-01T03:16:39;7.35;;;6.63;;
7745;SDS011;3917;42.748;23.278;2022-08-01T03:19:09;8.27;;;5.72;;
7745;SDS011;3917;42.748;23.278;2022-08-01T03:21:39;8.55;;;6.22;;
7745;SDS011;3917;42.748;23.278;2022-08-01T03:24:07;9.48;;;6.57;;
7745;SDS011;3917;42.748;23.278;2022-08-01T03:26:38;7.22;;;5.72;;
7745;SDS011;3917;42.748;23.278;2022-08-01T03:29:06;9.63;;;5.72;;
7745;SDS011;3917;42.748;23.278;2022-08-01T03:31:37;6.65;;;6.03;;
7745;SDS011;3917;42.748;23.278;2022-08-01T03:34:07;5.88;;;5.28;;
7745;SDS011;3917;42.748;23.278;2022-08-01T03:36:35;7.10;;;4.68;;
7745;SDS011;3917;42.748;23.278;2022-08-01T03:39:09;6.32;;;5.70;;
7745;SDS011;3917;42.748;23.278;2022-08-01T03:41:39;5.38;;;4.97;;
7745;SDS011;3917;42.748;23.278;2022-08-01T03:44:10;6.68;;;5.00;;
7745;SDS011;3917;42.748;23.278;2022-08-01T03:46:40;6.53;;;4.75;;
7745;SDS011;3917;42.748;23.278;2022-08-01T03:49:10;5.53;;;5.05;;
7745;SDS011;3917;42.748;23.278;2022-08-01T03:51:42;8.10;;;5.60;;
7745;SDS011;3917;42.748;23.278;2022-08-01T03:54:13;5.50;;;4.75;;
7745;SDS011;3917;42.748;23.278;2022-08-01T03:56:41;6.60;;;4.82;;
7745;SDS011;3917;42.748;23.278;2022-08-01T03:59:09;6.13;;;4.63;;
7745;SDS011;3917;42.748;23.278;2022-08-01T04:01:36;13.38;;;4.72;;
7745;SDS011;3917;42.748;23.278;2022-08-01T04:04:04;11.10;;;4.45;;
7745;SDS011;3917;42.748;23.278;2022-08-01T04:06:31;7.90;;;4.68;;
7745;SDS011;3917;42.748;23.278;2022-08-01T04:08:59;7.00;;;4.63;;
7745;SDS011;3917;42.748;23.278;2022-08-01T04:11:27;11.30;;;4.20;;
7745;SDS011;3917;42.748;23.278;2022-08-01T04:13:54;9.57;;;4.57;;
7745;SDS011;3917;42.748;23.278;2022-08-01T04:16:22;15.90;;;5.28;;
7745;SDS011;3917;42.748;23.278;2022-08-01T04:18:49;6.60;;;4.25;;
7745;SDS011;3917;42.748;23.278;2022-08-01T04:21:17;11.90;;;5.10;;
7745;SDS011;3917;42.748;23.278;2022-08-01T04:23:47;14.15;;;4.85;;
7745;SDS011;3917;42.748;23.278;2022-08-01T04:26:17;11.65;;;4.78;;
7745;SDS011;3917;42.748;23.278;2022-08-01T04:28:46;5.57;;;4.38;;
7745;SDS011;3917;42.748;23.278;2022-08-01T04:31:15;11.88;;;4.43;;
7745;SDS011;3917;42.748;23.278;2022-08-01T04:33:43;10.63;;;4.20;;
7745;SDS011;3917;42.748;23.278;2022-08-01T04:36:15;12.77;;;4.50;;
7745;SDS011;3917;42.748;23.278;2022-08-01T04:38:46;6.15;;;4.43;;
7745;SDS011;3917;42.748;23.278;2022-08-01T04:41:18;8.25;;;3.67;;
7745;SDS011;3917;42.748;23.278;2022-08-01T04:43:45;4.53;;;4.00;;
7745;SDS011;3917;42.748;23.278;2022-08-01T04:46:13;5.05;;;3.45;;
7745;SDS011;3917;42.748;23.278;2022-08-01T04:48:42;9.30;;;4.47;;
7745;SDS011;3917;42.748;23.278;2022-08-01T04:51:11;11.75;;;5.25;;
7745;SDS011;3917;42.748;23.278;2022-08-01T04:53:41;8.02;;;4.28;;
7745;SDS011;3917;42.748;23.278;2022-08-01T04:56:08;8.02;;;4.10;;
7745;SDS011;3917;42.748;23.278;2022-08-01T04:58:39;4.28;;;3.60;;
7745;SDS011;3917;42.748;23.278;2022-08-01T05:01:06;4.10;;;3.80;;
7745;SDS011;3917;42.748;23.278;2022-08-01T05:03:33;8.13;;;4.15;;
7745;SDS011;3917;42.748;23.278;2022-08-01T05:06:00;8.38;;;4.68;;
7745;SDS011;3917;42.748;23.278;2022-08-01T05:08:27;5.55;;;4.07;;
7745;SDS011;3917;42.748;23.278;2022-08-01T05:10:54;6.10;;;4.05;;
7745;SDS011;3917;42.748;23.278;2022-08-01T05:13:21;7.32;;;3.97;;
7745;SDS011;3917;42.748;23.278;2022-08-01T05:15:49;3.83;;;3.53;;
7745;SDS011;3917;42.748;23.278;2022-08-01T05:18:17;3.65;;;3.35;;
7745;SDS011;3917;42.748;23.278;2022-08-01T05:20:44;6.75;;;3.10;;
7745;SDS011;3917;42.748;23.278;2022-08-01T05:23:12;6.32;;;3.28;;
7745;SDS011;3917;42.748;23.278;2022-08-01T05:25:39;7.15;;;3.63;;
7745;SDS011;3917;42.748;23.278;2022-08-01T05:28:06;4.50;;;3.10;;
7745;SDS011;3917;42.748;23.278;2022-08-01T05:30:32;4.55;;;3.33;;
7745;SDS011;3917;42.748;23.278;2022-08-01T05:33:01;5.55;;;2.63;;
7745;SDS011;3917;42.748;23.278;2022-08-01T05:35:27;4.13;;;2.88;;
7745;SDS011;3917;42.748;23.278;2022-08-01T05:37:54;7.78;;;3.30;;
7745;SDS011;3917;42.748;23.278;2022-08-01T05:40:21;3.22;;;2.90;;
7745;SDS011;3917;42.748;23.278;2022-08-01T05:42:48;11.82;;;3.17;;
7745;SDS011;3917;42.748;23.278;2022-08-01T05:45:15;3.30;;;3.05;;
7745;SDS011;3917;42.748;23.278;2022-08-01T05:50:18;2.88;;;2.53;;
7745;SDS011;3917;42.748;23.278;2022-08-01T05:55:31;10.30;;;3.28;;
7745;SDS011;3917;42.748;23.278;2022-08-01T05:57:58;5.05;;;2.53;;
7745;SDS011;3917;42.748;23.278;2022-08-01T06:00:24;5.90;;;2.38;;
7745;SDS011;3917;42.748;23.278;2022-08-01T06:02:51;3.00;;;2.13;;
7745;SDS011;3917;42.748;23.278;2022-08-01T06:05:19;3.13;;;2.08;;
7745;SDS011;3917;42.748;23.278;2022-08-01T06:07:46;4.10;;;2.35;;
7745;SDS011;3917;42.748;23.278;2022-08-01T06:10:13;2.92;;;2.10;;
7745;SDS011;3917;42.748;23.278;2022-08-01T06:12:40;1.60;;;1.50;;
7745;SDS011;3917;42.748;23.278;2022-08-01T06:15:07;3.05;;;1.92;;
7745;SDS011;3917;42.748;23.278;2022-08-01T06:17:35;3.45;;;1.70;;
7745;SDS011;3917;42.748;23.278;2022-08-01T06:20:02;3.72;;;1.98;;
7745;SDS011;3917;42.748;23.278;2022-08-01T06:22:30;3.60;;;1.63;;
7745;SDS011;3917;42.748;23.278;2022-08-01T06:24:57;3.75;;;1.88;;
7745;SDS011;3917;42.748;23.278;2022-08-01T06:27:24;3.65;;;1.70;;
7745;SDS011;3917;42.748;23.278;2022-08-01T06:29:51;1.85;;;1.67;;
7745;SDS011;3917;42.748;23.278;2022-08-01T06:32:18;8.70;;;1.40;;
7745;SDS011;3917;42.748;23.278;2022-08-01T06:34:45;3.17;;;1.45;;
7745;SDS011;3917;42.748;23.278;2022-08-01T06:37:11;3.30;;;1.75;;
7745;SDS011;3917;42.748;23.278;2022-08-01T06:39:41;4.65;;;1.55;;
7745;SDS011;3917;42.748;23.278;2022-08-01T06:42:07;3.88;;;1.70;;
7745;SDS011;3917;42.748;23.278;2022-08-01T06:44:35;5.88;;;1.63;;
7745;SDS011;3917;42.748;23.278;2022-08-01T06:47:01;1.58;;;1.48;;
7745;SDS011;3917;42.748;23.278;2022-08-01T06:49:28;5.53;;;1.77;;
7745;SDS011;3917;42.748;23.278;2022-08-01T06:51:55;1.73;;;1.60;;
7745;SDS011;3917;42.748;23.278;2022-08-01T06:54:22;4.10;;;1.40;;
7745;SDS011;3917;42.748;23.278;2022-08-01T06:56:50;11.35;;;1.90;;
7745;SDS011;3917;42.748;23.278;2022-08-01T06:59:17;4.35;;;1.55;;
7745;SDS011;3917;42.748;23.278;2022-08-01T07:01:43;1.85;;;1.30;;
7745;SDS011;3917;42.748;23.278;2022-08-01T07:04:10;1.23;;;1.20;;
7745;SDS011;3917;42.748;23.278;2022-08-01T07:06:37;7.38;;;1.70;;
7745;SDS011;3917;42.748;23.278;2022-08-01T07:09:04;2.67;;;1.23;;
7745;SDS011;3917;42.748;23.278;2022-08-01T07:11:30;3.28;;;1.48;;
7745;SDS011;3917;42.748;23.278;2022-08-01T07:13:59;3.15;;;1.27;;
7745;SDS011;3917;42.748;23.278;2022-08-01T07:16:26;3.20;;;1.85;;
7745;SDS011;3917;42.748;23.278;2022-08-01T07:18:52;4.55;;;1.70;;
7745;SDS011;3917;42.748;23.278;2022-08-01T07:21:19;8.57;;;2.38;;
7745;SDS011;3917;42.748;23.278;2022-08-01T07:23:46;7.10;;;1.58;;
7745;SDS011;3917;42.748;23.278;2022-08-01T07:26:13;5.30;;;1.77;;
7745;SDS011;3917;42.748;23.278;2022-08-01T07:28:40;2.97;;;1.63;;
7745;SDS011;3917;42.748;23.278;2022-08-01T07:31:08;5.78;;;1.80;;
7745;SDS011;3917;42.748;23.278;2022-08-01T07:33:35;1.83;;;1.73;;
7745;SDS011;3917;42.748;23.278;2022-08-01T07:36:01;2.58;;;1.52;;
7745;SDS011;3917;42.748;23.278;2022-08-01T07:38:29;5.60;;;1.80;;
7745;SDS011;3917;42.748;23.278;2022-08-01T07:40:56;9.32;;;1.80;;
7745;SDS011;3917;42.748;23.278;2022-08-01T07:43:23;5.43;;;2.28;;
7745;SDS011;3917;42.748;23.278;2022-08-01T07:45:49;3.38;;;1.80;;
7745;SDS011;3917;42.748;23.278;2022-08-01T07:48:17;4.07;;;1.75;;
7745;SDS011;3917;42.748;23.278;2022-08-01T07:50:45;1.92;;;1.60;;
7745;SDS011;3917;42.748;23.278;2022-08-01T07:53:12;2.10;;;1.70;;
7745;SDS011;3917;42.748;23.278;2022-08-01T07:55:39;5.30;;;1.67;;
7745;SDS011;3917;42.748;23.278;2022-08-01T07:58:06;3.92;;;1.80;;
7745;SDS011;3917;42.748;23.278;2022-08-01T08:00:32;5.10;;;1.73;;
7745;SDS011;3917;42.748;23.278;2022-08-01T08:02:59;3.50;;;2.10;;
7745;SDS011;3917;42.748;23.278;2022-08-01T08:05:27;1.55;;;1.45;;
7745;SDS011;3917;42.748;23.278;2022-08-01T08:07:54;2.72;;;1.85;;
7745;SDS011;3917;42.748;23.278;2022-08-01T08:10:21;2.50;;;1.45;;
7745;SDS011;3917;42.748;23.278;2022-08-01T08:12:48;4.70;;;1.77;;
7745;SDS011;3917;42.748;23.278;2022-08-01T08:15:15;3.28;;;1.60;;
7745;SDS011;3917;42.748;23.278;2022-08-01T08:17:42;4.85;;;2.13;;
7745;SDS011;3917;42.748;23.278;2022-08-01T08:20:09;6.53;;;1.50;;
7745;SDS011;3917;42.748;23.278;2022-08-01T08:22:37;4.22;;;1.98;;
7745;SDS011;3917;42.748;23.278;2022-08-01T08:25:05;4.35;;;1.83;;
7745;SDS011;3917;42.748;23.278;2022-08-01T08:27:33;5.25;;;1.63;;
7745;SDS011;3917;42.748;23.278;2022-08-01T08:30:00;5.35;;;1.77;;
7745;SDS011;3917;42.748;23.278;2022-08-01T08:32:27;3.03;;;1.50;;
7745;SDS011;3917;42.748;23.278;2022-08-01T08:34:54;4.85;;;1.60;;
7745;SDS011;3917;42.748;23.278;2022-08-01T08:37:20;2.50;;;1.50;;
7745;SDS011;3917;42.748;23.278;2022-08-01T08:39:49;2.60;;;1.80;;
7745;SDS011;3917;42.748;23.278;2022-08-01T08:42:16;4.07;;;1.52;;
7745;SDS011;3917;42.748;23.278;2022-08-01T08:44:42;5.70;;;1.50;;
7745;SDS011;3917;42.748;23.278;2022-08-01T08:47:10;1.42;;;1.33;;
7745;SDS011;3917;42.748;23.278;2022-08-01T08:49:39;4.35;;;1.33;;
7745;SDS011;3917;42.748;23.278;2022-08-01T08:52:09;16.20;;;1.75;;
7745;SDS011;3917;42.748;23.278;2022-08-01T08:54:37;6.07;;;1.60;;
7745;SDS011;3917;42.748;23.278;2022-08-01T08:57:08;1.45;;;1.35;;
7745;SDS011;3917;42.748;23.278;2022-08-01T08:59:36;2.65;;;1.65;;
7745;SDS011;3917;42.748;23.278;2022-08-01T09:02:04;8.07;;;1.92;;
7745;SDS011;3917;42.748;23.278;2022-08-01T09:04:31;5.28;;;1.40;;
7745;SDS011;3917;42.748;23.278;2022-08-01T09:06:58;1.80;;;1.50;;
7745;SDS011;3917;42.748;23.278;2022-08-01T09:09:25;1.58;;;1.48;;
7745;SDS011;3917;42.748;23.278;2022-08-01T09:11:53;4.38;;;1.88;;
7745;SDS011;3917;42.748;23.278;2022-08-01T09:14:23;8.05;;;1.95;;
7745;SDS011;3917;42.748;23.278;2022-08-01T09:17:01;2.10;;;1.60;;
7745;SDS011;3917;42.748;23.278;2022-08-01T09:19:35;5.78;;;2.10;;
7745;SDS011;3917;42.748;23.278;2022-08-01T09:22:06;4.40;;;1.35;;
7745;SDS011;3917;42.748;23.278;2022-08-01T09:27:14;1.73;;;1.20;;
7745;SDS011;3917;42.748;23.278;2022-08-01T09:29:44;5.82;;;1.38;;
7745;SDS011;3917;42.748;23.278;2022-08-01T09:32:11;2.40;;;1.23;;
7745;SDS011;3917;42.748;23.278;2022-08-01T09:34:38;4.50;;;1.55;;
7745;SDS011;3917;42.748;23.278;2022-08-01T09:37:05;3.10;;;1.50;;
7745;SDS011;3917;42.748;23.278;2022-08-01T09:39:34;4.30;;;1.38;;
7745;SDS011;3917;42.748;23.278;2022-08-01T09:42:18;2.88;;;1.30;;
7745;SDS011;3917;42.748;23.278;2022-08-01T09:44:47;3.30;;;1.20;;
7745;SDS011;3917;42.748;23.278;2022-08-01T09:47:15;3.92;;;1.50;;
7745;SDS011;3917;42.748;23.278;2022-08-01T09:49:43;1.67;;;1.58;;
7745;SDS011;3917;42.748;23.278;2022-08-01T09:52:11;2.10;;;1.75;;
7745;SDS011;3917;42.748;23.278;2022-08-01T09:54:39;3.42;;;1.70;;
7745;SDS011;3917;42.748;23.278;2022-08-01T09:57:12;4.05;;;1.92;;
7745;SDS011;3917;42.748;23.278;2022-08-01T09:59:40;1.85;;;1.60;;
7745;SDS011;3917;42.748;23.278;2022-08-01T10:02:10;7.18;;;2.20;;
7745;SDS011;3917;42.748;23.278;2022-08-01T10:04:47;2.47;;;1.60;;
7745;SDS011;3917;42.748;23.278;2022-08-01T10:07:15;6.15;;;1.70;;
7745;SDS011;3917;42.748;23.278;2022-08-01T10:09:42;2.67;;;1.80;;
7745;SDS011;3917;42.748;23.278;2022-08-01T10:12:11;1.85;;;1.75;;
7745;SDS011;3917;42.748;23.278;2022-08-01T10:14:39;4.20;;;1.60;;
7745;SDS011;3917;42.748;23.278;2022-08-01T10:17:08;5.38;;;1.65;;
7745;SDS011;3917;42.748;23.278;2022-08-01T10:19:38;1.52;;;1.42;;
7745;SDS011;3917;42.748;23.278;2022-08-01T10:22:08;5.63;;;1.75;;
7745;SDS011;3917;42.748;23.278;2022-08-01T10:24:41;5.03;;;1.58;;
7745;SDS011;3917;42.748;23.278;2022-08-01T10:27:13;1.70;;;1.58;;
7745;SDS011;3917;42.748;23.278;2022-08-01T10:29:42;6.45;;;1.50;;
7745;SDS011;3917;42.748;23.278;2022-08-01T10:32:13;3.00;;;1.20;;
7745;SDS011;3917;42.748;23.278;2022-08-01T10:34:42;3.05;;;1.58;;
7745;SDS011;3917;42.748;23.278;2022-08-01T10:37:09;3.35;;;1.80;;
7745;SDS011;3917;42.748;23.278;2022-08-01T10:39:36;4.13;;;1.90;;
7745;SDS011;3917;42.748;23.278;2022-08-01T10:42:05;3.90;;;1.40;;
7745;SDS011;3917;42.748;23.278;2022-08-01T10:44:35;1.70;;;1.60;;
7745;SDS011;3917;42.748;23.278;2022-08-01T10:47:04;4.15;;;1.83;;
7745;SDS011;3917;42.748;23.278;2022-08-01T10:49:36;5.10;;;1.80;;
7745;SDS011;3917;42.748;23.278;2022-08-01T10:52:13;2.92;;;1.42;;
7745;SDS011;3917;42.748;23.278;2022-08-01T10:54:40;1.70;;;1.60;;
7745;SDS011;3917;42.748;23.278;2022-08-01T10:57:07;2.88;;;2.13;;
7745;SDS011;3917;42.748;23.278;2022-08-01T10:59:35;3.53;;;1.80;;
7745;SDS011;3917;42.748;23.278;2022-08-01T11:02:13;2.20;;;1.58;;
7745;SDS011;3917;42.748;23.278;2022-08-01T11:04:55;2.00;;;1.90;;
7745;SDS011;3917;42.748;23.278;2022-08-01T11:07:35;2.92;;;2.05;;
7745;SDS011;3917;42.748;23.278;2022-08-01T11:10:10;3.58;;;1.92;;
7745;SDS011;3917;42.748;23.278;2022-08-01T11:12:48;3.05;;;1.98;;
7745;SDS011;3917;42.748;23.278;2022-08-01T11:15:19;2.03;;;1.92;;
7745;SDS011;3917;42.748;23.278;2022-08-01T11:17:51;2.25;;;1.90;;
7745;SDS011;3917;42.748;23.278;2022-08-01T11:20:21;1.90;;;1.67;;
7745;SDS011;3917;42.748;23.278;2022-08-01T11:28:33;1.70;;;1.60;;
7745;SDS011;3917;42.748;23.278;2022-08-01T11:33:54;3.47;;;1.80;;
7745;SDS011;3917;42.748;23.278;2022-08-01T11:36:23;2.30;;;1.90;;
7745;SDS011;3917;42.748;23.278;2022-08-01T11:41:40;2.85;;;2.38;;
7745;SDS011;3917;42.748;23.278;2022-08-01T11:44:08;6.85;;;3.40;;
7745;SDS011;3917;42.748;23.278;2022-08-01T11:46:52;2.70;;;2.35;;
7745;SDS011;3917;42.748;23.278;2022-08-01T11:52:25;2.67;;;2.05;;
7745;SDS011;3917;42.748;23.278;2022-08-01T11:54:53;2.88;;;1.75;;
7745;SDS011;3917;42.748;23.278;2022-08-01T11:57:22;3.00;;;1.90;;
7745;SDS011;3917;42.748;23.278;2022-08-01T11:59:51;2.17;;;2.05;;
7745;SDS011;3917;42.748;23.278;2022-08-01T12:02:21;5.15;;;2.30;;
7745;SDS011;3917;42.748;23.278;2022-08-01T12:04:52;3.60;;;1.88;;
7745;SDS011;3917;42.748;23.278;2022-08-01T12:07:26;2.25;;;2.05;;
7745;SDS011;3917;42.748;23.278;2022-08-01T12:09:57;2.08;;;1.98;;
7745;SDS011;3917;42.748;23.278;2022-08-01T12:12:27;4.18;;;1.80;;
7745;SDS011;3917;42.748;23.278;2022-08-01T12:14:54;2.72;;;2.05;;
7745;SDS011;3917;42.748;23.278;2022-08-01T12:17:29;3.92;;;1.90;;
7745;SDS011;3917;42.748;23.278;2022-08-01T12:20:00;4.57;;;2.13;;
7745;SDS011;3917;42.748;23.278;2022-08-01T12:22:29;3.08;;;2.13;;
7745;SDS011;3917;42.748;23.278;2022-08-01T12:24:58;4.68;;;2.20;;
7745;SDS011;3917;42.748;23.278;2022-08-01T12:27:31;4.03;;;2.63;;
7745;SDS011;3917;42.748;23.278;2022-08-01T12:29:58;2.85;;;2.17;;
7745;SDS011;3917;42.748;23.278;2022-08-01T12:32:26;2.45;;;2.00;;
7745;SDS011;3917;42.748;23.278;2022-08-01T12:34:56;7.40;;;2.30;;
7745;SDS011;3917;42.748;23.278;2022-08-01T12:37:27;4.20;;;2.20;;
7745;SDS011;3917;42.748;23.278;2022-08-01T12:39:55;4.93;;;1.98;;
7745;SDS011;3917;42.748;23.278;2022-08-01T12:42:23;8.15;;;1.73;;
7745;SDS011;3917;42.748;23.278;2022-08-01T12:44:51;3.80;;;1.67;;
7745;SDS011;3917;42.748;23.278;2022-08-01T12:47:18;3.22;;;2.17;;
7745;SDS011;3917;42.748;23.278;2022-08-01T12:49:46;2.08;;;1.95;;
7745;SDS011;3917;42.748;23.278;2022-08-01T12:52:14;3.30;;;2.15;;
7745;SDS011;3917;42.748;23.278;2022-08-01T12:55:04;5.30;;;1.73;;
7745;SDS011;3917;42.748;23.278;2022-08-01T12:57:34;2.10;;;1.90;;
7745;SDS011;3917;42.748;23.278;2022-08-01T13:00:06;4.32;;;1.60;;
7745;SDS011;3917;42.748;23.278;2022-08-01T13:02:35;1.67;;;1.58;;
7745;SDS011;3917;42.748;23.278;2022-08-01T13:05:02;2.35;;;1.90;;
7745;SDS011;3917;42.748;23.278;2022-08-01T13:07:42;4.03;;;1.88;;
7745;SDS011;3917;42.748;23.278;2022-08-01T13:10:26;3.00;;;2.08;;
7745;SDS011;3917;42.748;23.278;2022-08-01T13:12:56;2.20;;;1.63;;
7745;SDS011;3917;42.748;23.278;2022-08-01T13:15:25;2.38;;;1.85;;
7745;SDS011;3917;42.748;23.278;2022-08-01T13:17:56;2.70;;;1.75;;
7745;SDS011;3917;42.748;23.278;2022-08-01T13:20:26;2.45;;;2.00;;
7745;SDS011;3917;42.748;23.278;2022-08-01T13:22:54;2.58;;;1.75;;
7745;SDS011;3917;42.748;23.278;2022-08-01T13:25:21;2.00;;;1.55;;
7745;SDS011;3917;42.748;23.278;2022-08-01T13:27:50;1.70;;;1.60;;
7745;SDS011;3917;42.748;23.278;2022-08-01T13:30:53;1.70;;;1.55;;
7745;SDS011;3917;42.748;23.278;2022-08-01T13:33:22;1.80;;;1.70;;
7745;SDS011;3917;42.748;23.278;2022-08-01T13:35:50;2.83;;;1.67;;
7745;SDS011;3917;42.748;23.278;2022-08-01T13:38:17;3.28;;;1.60;;
7745;SDS011;3917;42.748;23.278;2022-08-01T13:40:44;1.70;;;1.60;;
7745;SDS011;3917;42.748;23.278;2022-08-01T13:43:13;4.75;;;2.05;;
7745;SDS011;3917;42.748;23.278;2022-08-01T13:45:40;2.20;;;1.70;;
7745;SDS011;3917;42.748;23.278;2022-08-01T13:48:06;1.65;;;1.55;;
7745;SDS011;3917;42.748;23.278;2022-08-01T13:50:33;4.00;;;1.70;;
7745;SDS011;3917;42.748;23.278;2022-08-01T13:53:00;2.30;;;1.48;;
7745;SDS011;3917;42.748;23.278;2022-08-01T13:55:27;1.50;;;1.40;;
7745;SDS011;3917;42.748;23.278;2022-08-01T13:57:54;2.75;;;1.50;;
7745;SDS011;3917;42.748;23.278;2022-08-01T14:00:22;4.25;;;1.58;;
7745;SDS011;3917;42.748;23.278;2022-08-01T14:02:49;3.42;;;1.70;;
7745;SDS011;3917;42.748;23.278;2022-08-01T14:05:16;3.50;;;1.73;;
7745;SDS011;3917;42.748;23.278;2022-08-01T14:07:43;2.78;;;1.60;;
7745;SDS011;3917;42.748;23.278;2022-08-01T14:10:10;4.30;;;1.80;;
7745;SDS011;3917;42.748;23.278;2022-08-01T14:12:37;2.42;;;1.88;;
7745;SDS011;3917;42.748;23.278;2022-08-01T14:15:04;3.97;;;1.80;;
7745;SDS011;3917;42.748;23.278;2022-08-01T14:17:34;3.10;;;2.00;;
7745;SDS011;3917;42.748;23.278;2022-08-01T14:20:00;2.65;;;1.60;;
7745;SDS011;3917;42.748;23.278;2022-08-01T14:22:29;2.63;;;1.77;;
7745;SDS011;3917;42.748;23.278;2022-08-01T14:24:56;5.88;;;1.95;;
7745;SDS011;3917;42.748;23.278;2022-08-01T14:27:24;3.80;;;1.85;;
7745;SDS011;3917;42.748;23.278;2022-08-01T14:29:51;1.88;;;1.58;;
7745;SDS011;3917;42.748;23.278;2022-08-01T14:32:24;4.82;;;1.52;;
7745;SDS011;3917;42.748;23.278;2022-08-01T14:34:52;2.38;;;1.50;;
7745;SDS011;3917;42.748;23.278;2022-08-01T14:37:18;3.22;;;1.50;;
7745;SDS011;3917;42.748;23.278;2022-08-01T14:39:46;1.70;;;1.60;;
7745;SDS011;3917;42.748;23.278;2022-08-01T14:42:23;3.00;;;1.50;;
7745;SDS011;3917;42.748;23.278;2022-08-01T14:44:49;2.78;;;1.23;;
7745;SDS011;3917;42.748;23.278;2022-08-01T14:47:16;1.60;;;1.50;;
7745;SDS011;3917;42.748;23.278;2022-08-01T14:49:43;3.70;;;1.40;;
7745;SDS011;3917;42.748;23.278;2022-08-01T14:52:11;4.97;;;1.42;;
7745;SDS011;3917;42.748;23.278;2022-08-01T14:54:38;10.75;;;1.75;;
7745;SDS011;3917;42.748;23.278;2022-08-01T14:57:05;1.58;;;1.48;;
7745;SDS011;3917;42.748;23.278;2022-08-01T14:59:32;3.33;;;1.60;;
7745;SDS011;3917;42.748;23.278;2022-08-01T15:01:58;1.65;;;1.55;;
7745;SDS011;3917;42.748;23.278;2022-08-01T15:04:25;2.67;;;1.40;;
7745;SDS011;3917;42.748;23.278;2022-08-01T15:06:53;1.50;;;1.40;;
7745;SDS011;3917;42.748;23.278;2022-08-01T15:09:21;1.60;;;1.50;;
7745;SDS011;3917;42.748;23.278;2022-08-01T15:11:48;2.38;;;1.17;;
7745;SDS011;3917;42.748;23.278;2022-08-01T15:14:15;2.85;;;1.40;;
7745;SDS011;3917;42.748;23.278;2022-08-01T15:16:59;1.45;;;1.17;;
7745;SDS011;3917;42.748;23.278;2022-08-01T15:19:26;1.40;;;1.30;;
7745;SDS011;3917;42.748;23.278;2022-08-01T15:21:53;3.88;;;1.50;;
7745;SDS011;3917;42.748;23.278;2022-08-01T15:24:21;3.42;;;1.60;;
7745;SDS011;3917;42.748;23.278;2022-08-01T15:26:48;1.48;;;1.38;;
7745;SDS011;3917;42.748;23.278;2022-08-01T15:29:15;1.40;;;1.30;;
7745;SDS011;3917;42.748;23.278;2022-08-01T15:31:42;6.57;;;1.60;;
7745;SDS011;3917;42.748;23.278;2022-08-01T15:34:08;1.60;;;1.50;;
7745;SDS011;3917;42.748;23.278;2022-08-01T15:36:35;3.28;;;1.50;;